Time;durP1;ratioP1;P1;durP2;ratioP2;P2;SDS_P1;SDS_P2;PMS_P1;PMS_P2;Temp;Humidity;BMP_temperature;BMP_pressure;BME280_temperature;BME280_humidity;BME280_pressure;Samples;Min_cycle;Max_cycle;Signal;HPM_P1;HPM_P2
2021/03/17 07:05:00;;;;;;;13.32;9.02;;;;;;;;;;5274213;23;20093;-68
2021/03/17 07:07:26;;;;;;;12.73;9.02;;;;;;;;;;4899979;29;20036;-69
2021/03/17 07:09:59;;;;;;;15.70;9.98;;;;;;;;;;4899119;29;20380;-69
2021/03/17 07:12:31;;;;;;;12.45;8.93;;;;;;;;;;4883185;29;20028;-72
2021/03/17 07:15:08;;;;;;;12.65;9.30;;;;;;;;;;4889614;29;20021;-70
2021/03/17 07:17:34;;;;;;;13.90;9.45;;;;;;;;;;4900488;29;20108;-66
2021/03/17 07:20:05;;;;;;;15.70;9.85;;;;;;;;;;4894158;29;20481;-67
2021/03/17 07:22:31;;;;;;;14.13;9.70;;;;;;;;;;4899494;29;20052;-70
2021/03/17 07:25:02;;;;;;;14.65;10.50;;;;;;;;;;4900223;29;20021;-70
2021/03/17 07:27:29;;;;;;;16.98;10.63;;;;;;;;;;4889993;29;20030;-68
2021/03/17 07:29:58;;;;;;;17.98;9.85;;;;;;;;;;4899649;29;20380;-68
2021/03/17 07:32:25;;;;;;;15.93;10.05;;;;;;;;;;4884192;29;20112;-68
2021/03/17 07:34:51;;;;;;;13.65;9.63;;;;;;;;;;4900988;29;20025;-66
2021/03/17 07:37:17;;;;;;;14.25;9.32;;;;;;;;;;4901547;29;20036;-71
2021/03/17 07:39:44;;;;;;;16.70;9.43;;;;;;;;;;4900980;29;20056;-67
2021/03/17 07:42:11;;;;;;;16.55;10.20;;;;;;;;;;4900467;29;20041;-66
2021/03/17 07:44:41;;;;;;;26.83;17.20;;;;;;;;;;4897336;29;20417;-64
2021/03/17 07:47:08;;;;;;;16.88;10.90;;;;;;;;;;4887223;29;20480;-66
2021/03/17 07:49:36;;;;;;;15.75;9.68;;;;;;;;;;4900605;29;20544;-65
2021/03/17 07:52:02;;;;;;;15.57;10.02;;;;;;;;;;4894152;29;20057;-65
2021/03/17 07:54:36;;;;;;;14.38;9.85;;;;;;;;;;4886524;29;20417;-67
2021/03/17 07:57:03;;;;;;;18.17;10.40;;;;;;;;;;4887662;29;20032;-64
2021/03/17 07:59:32;;;;;;;17.85;10.80;;;;;;;;;;4894788;29;20139;-65
2021/03/17 08:01:58;;;;;;;16.13;10.30;;;;;;;;;;4896108;29;20536;-66
2021/03/17 08:04:31;;;;;;;16.35;10.80;;;;;;;;;;4884896;29;20111;-67
2021/03/17 08:06:57;;;;;;;15.98;10.93;;;;;;;;;;4881608;29;20045;-66
2021/03/17 08:09:26;;;;;;;17.38;10.48;;;;;;;;;;4864210;29;20040;-67
2021/03/17 08:11:53;;;;;;;20.10;10.82;;;;;;;;;;4879903;29;20029;-66
2021/03/17 08:14:19;;;;;;;18.80;10.95;;;;;;;;;;4879378;29;20021;-67
2021/03/17 08:16:46;;;;;;;18.67;11.00;;;;;;;;;;4877162;29;20040;-66
2021/03/17 08:19:28;;;;;;;20.83;10.77;;;;;;;;;;4862630;29;20081;-66
2021/03/17 08:22:12;;;;;;;17.05;11.25;;;;;;;;;;4880264;29;20053;-66
2021/03/17 08:24:40;;;;;;;15.65;11.23;;;;;;;;;;4877433;29;20351;-66
2021/03/17 08:27:12;;;;;;;16.38;10.75;;;;;;;;;;4877535;29;20055;-66
2021/03/17 08:29:49;;;;;;;15.77;10.75;;;;;;;;;;4853692;29;20033;-66
2021/03/17 08:32:16;;;;;;;18.52;11.52;;;;;;;;;;4879929;29;20115;-66
2021/03/17 08:34:51;;;;;;;19.70;11.85;;;;;;;;;;4856533;29;20033;-66
2021/03/17 08:37:18;;;;;;;19.10;11.82;;;;;;;;;;4880333;29;20029;-64
2021/03/17 08:39:45;;;;;;;17.33;11.55;;;;;;;;;;4879559;29;20065;-67
2021/03/17 08:42:11;;;;;;;15.90;10.65;;;;;;;;;;4879861;29;20017;-66
2021/03/17 08:44:38;;;;;;;15.80;10.88;;;;;;;;;;4880015;29;20029;-66
2021/03/17 08:47:16;;;;;;;15.85;10.80;;;;;;;;;;4881056;29;20032;-66
2021/03/17 08:49:42;;;;;;;17.95;11.85;;;;;;;;;;4880077;29;20040;-67
2021/03/17 08:52:11;;;;;;;20.48;12.23;;;;;;;;;;4880193;29;20037;-68
2021/03/17 08:54:40;;;;;;;18.58;12.63;;;;;;;;;;4880228;29;20084;-67
2021/03/17 08:57:13;;;;;;;21.70;12.70;;;;;;;;;;4860673;29;20064;-70
2021/03/17 08:59:47;;;;;;;18.45;11.65;;;;;;;;;;4860233;29;20069;-69
2021/03/17 09:02:29;;;;;;;15.32;11.48;;;;;;;;;;4879548;29;20033;-70
2021/03/17 09:04:56;;;;;;;17.88;12.93;;;;;;;;;;4863554;29;20135;-70
2021/03/17 09:07:23;;;;;;;19.23;12.27;;;;;;;;;;4888087;29;20032;-70
2021/03/17 09:10:13;;;;;;;28.02;17.65;;;;;;;;;;4881541;29;20028;-70
2021/03/17 09:12:40;;;;;;;16.67;12.10;;;;;;;;;;4891475;29;20036;-68
2021/03/17 09:15:17;;;;;;;18.92;12.43;;;;;;;;;;4884850;29;20093;-70
2021/03/17 09:18:01;;;;;;;22.02;12.45;;;;;;;;;;4893508;29;20112;-69
2021/03/17 09:20:28;;;;;;;17.88;12.25;;;;;;;;;;4892738;29;20028;-69
2021/03/17 09:22:56;;;;;;;19.83;12.52;;;;;;;;;;4892895;29;20016;-72
2021/03/17 09:28:31;;;;;;;24.95;13.75;;;;;;;;;;4884670;29;20096;-70
2021/03/17 09:31:05;;;;;;;21.58;13.95;;;;;;;;;;4874044;29;20045;-70
2021/03/17 09:33:37;;;;;;;19.58;13.15;;;;;;;;;;4888275;29;20041;-71
2021/03/17 09:36:06;;;;;;;22.92;14.20;;;;;;;;;;4886712;29;20101;-70
2021/03/17 09:38:34;;;;;;;26.50;15.05;;;;;;;;;;4884828;29;20388;-69
2021/03/17 09:41:14;;;;;;;21.80;13.52;;;;;;;;;;4886796;29;20028;-71
2021/03/17 09:43:51;;;;;;;22.40;13.90;;;;;;;;;;4891188;29;20036;-69
2021/03/17 09:46:20;;;;;;;20.40;12.35;;;;;;;;;;4869648;29;20140;-71
2021/03/17 09:48:47;;;;;;;20.23;13.02;;;;;;;;;;4865519;29;20025;-72
2021/03/17 09:51:18;;;;;;;18.15;12.63;;;;;;;;;;4863710;29;20029;-72
2021/03/17 09:53:45;;;;;;;19.20;13.15;;;;;;;;;;4870623;29;20028;-71
2021/03/17 09:56:11;;;;;;;21.58;12.65;;;;;;;;;;4869495;29;20115;-70
2021/03/17 09:58:38;;;;;;;21.40;14.00;;;;;;;;;;4873921;29;20032;-69
2021/03/17 10:01:08;;;;;;;23.00;15.48;;;;;;;;;;4868500;29;20028;-72
2021/03/17 10:03:34;;;;;;;19.23;14.05;;;;;;;;;;4892593;29;20037;-70
2021/03/17 10:06:00;;;;;;;21.13;13.90;;;;;;;;;;4869992;29;20056;-71
2021/03/17 10:08:26;;;;;;;19.25;14.05;;;;;;;;;;4890848;29;20400;-70
2021/03/17 10:10:54;;;;;;;22.77;14.27;;;;;;;;;;4879187;29;20032;-73
2021/03/17 10:13:20;;;;;;;24.13;14.95;;;;;;;;;;4865414;29;20064;-70
2021/03/17 10:15:51;;;;;;;23.73;15.15;;;;;;;;;;4879697;29;20505;-71
2021/03/17 10:18:17;;;;;;;22.83;14.73;;;;;;;;;;4865554;29;20028;-70
2021/03/17 10:20:44;;;;;;;22.55;14.88;;;;;;;;;;4866701;29;20362;-71
2021/03/17 10:23:10;;;;;;;21.35;14.05;;;;;;;;;;4867792;29;20078;-73
2021/03/17 10:25:36;;;;;;;20.95;13.52;;;;;;;;;;4888253;29;20035;-69
2021/03/17 10:28:05;;;;;;;22.60;14.05;;;;;;;;;;4870712;29;20368;-70
2021/03/17 10:30:32;;;;;;;21.90;14.95;;;;;;;;;;4886384;29;20029;-70
2021/03/17 10:33:02;;;;;;;23.25;13.30;;;;;;;;;;4871568;29;20111;-72
2021/03/17 10:35:32;;;;;;;20.60;14.25;;;;;;;;;;4869522;29;20032;-72
2021/03/17 10:37:59;;;;;;;22.98;13.93;;;;;;;;;;4874591;29;20077;-71
2021/03/17 10:40:26;;;;;;;23.42;13.68;;;;;;;;;;4890030;29;20033;-75
2021/03/17 10:42:56;;;;;;;22.15;14.18;;;;;;;;;;4870923;29;20025;-72
2021/03/17 10:45:30;;;;;;;18.45;13.00;;;;;;;;;;4872624;29;20029;-73
2021/03/17 10:47:56;;;;;;;16.92;12.55;;;;;;;;;;4875415;29;20106;-72
2021/03/17 10:50:31;;;;;;;19.88;13.50;;;;;;;;;;4870088;29;20056;-72
2021/03/17 10:52:57;;;;;;;18.83;11.95;;;;;;;;;;4869442;29;20025;-69
2021/03/17 10:55:25;;;;;;;16.60;11.20;;;;;;;;;;4868887;29;20033;-71
2021/03/17 10:57:52;;;;;;;16.90;11.85;;;;;;;;;;4869612;29;20028;-71
2021/03/17 11:00:26;;;;;;;19.63;11.68;;;;;;;;;;4889150;29;20024;-70
2021/03/17 11:02:52;;;;;;;17.52;10.63;;;;;;;;;;4867866;29;20452;-69
2021/03/17 11:05:22;;;;;;;18.23;11.98;;;;;;;;;;4891034;29;20063;-72
2021/03/17 11:07:53;;;;;;;15.40;10.25;;;;;;;;;;4887517;29;20033;-70
2021/03/17 11:10:46;;;;;;;17.02;12.23;;;;;;;;;;4887889;29;20076;-70
2021/03/17 11:13:12;;;;;;;14.57;10.10;;;;;;;;;;4848839;29;20486;-69
2021/03/17 11:15:51;;;;;;;16.85;10.15;;;;;;;;;;4849794;29;20038;-69
2021/03/17 11:18:22;;;;;;;18.48;10.70;;;;;;;;;;4854039;29;20090;-70
2021/03/17 11:20:49;;;;;;;16.50;9.93;;;;;;;;;;4846340;29;20106;-71
2021/03/17 11:23:23;;;;;;;15.02;10.45;;;;;;;;;;4856723;29;20034;-75
2021/03/17 11:25:50;;;;;;;17.30;11.13;;;;;;;;;;4846090;29;20041;-70
2021/03/17 11:28:18;;;;;;;16.33;11.20;;;;;;;;;;4846672;29;20150;-69
2021/03/17 11:30:45;;;;;;;17.25;11.10;;;;;;;;;;4846747;29;20073;-68
2021/03/17 11:33:12;;;;;;;15.88;11.00;;;;;;;;;;4844220;29;20083;-71
2021/03/17 11:35:39;;;;;;;17.48;11.25;;;;;;;;;;4844206;29;20037;-70
2021/03/17 11:38:05;;;;;;;16.90;11.93;;;;;;;;;;4844122;29;20586;-68
2021/03/17 11:40:31;;;;;;;17.77;10.57;;;;;;;;;;4844135;29;20034;-67
2021/03/17 11:43:07;;;;;;;16.60;11.05;;;;;;;;;;4845322;29;20090;-69
2021/03/17 11:45:36;;;;;;;17.42;11.48;;;;;;;;;;4851509;29;20029;-65
2021/03/17 11:48:03;;;;;;;17.08;11.07;;;;;;;;;;4851806;29;20073;-68
2021/03/17 11:50:30;;;;;;;20.00;12.95;;;;;;;;;;4873257;29;20063;-71
2021/03/17 11:52:56;;;;;;;18.45;11.75;;;;;;;;;;4874062;29;20060;-72
2021/03/17 11:55:23;;;;;;;15.98;11.80;;;;;;;;;;4889248;29;20545;-72
2021/03/17 11:57:49;;;;;;;20.20;13.02;;;;;;;;;;4894314;29;20056;-71
2021/03/17 12:00:16;;;;;;;26.48;14.80;;;;;;;;;;4894638;29;20075;-70
2021/03/17 12:02:42;;;;;;;19.38;12.65;;;;;;;;;;4900799;29;20025;-70
2021/03/17 12:05:08;;;;;;;20.38;14.23;;;;;;;;;;4869971;29;20080;-71
2021/03/17 12:07:41;;;;;;;21.58;13.98;;;;;;;;;;4888540;29;20036;-69
2021/03/17 12:10:08;;;;;;;21.70;14.75;;;;;;;;;;4891533;29;20032;-69
2021/03/17 12:12:35;;;;;;;22.65;13.85;;;;;;;;;;4870823;29;20066;-71
2021/03/17 12:15:02;;;;;;;24.30;15.00;;;;;;;;;;4866919;29;20029;-69
2021/03/17 12:17:28;;;;;;;27.13;17.08;;;;;;;;;;4890159;29;20032;-72
2021/03/17 12:19:54;;;;;;;24.58;16.33;;;;;;;;;;4870967;29;20051;-71
2021/03/17 12:22:20;;;;;;;22.75;15.00;;;;;;;;;;4890386;29;20033;-71
2021/03/17 12:24:46;;;;;;;22.90;16.33;;;;;;;;;;4872066;29;20493;-70
2021/03/17 12:27:13;;;;;;;25.60;17.05;;;;;;;;;;4867196;29;20809;-72
2021/03/17 12:29:39;;;;;;;25.02;16.83;;;;;;;;;;4867081;29;20025;-68
2021/03/17 12:32:05;;;;;;;24.52;15.30;;;;;;;;;;4870227;29;20489;-71
2021/03/17 12:34:32;;;;;;;24.25;15.90;;;;;;;;;;4873737;29;20029;-69
2021/03/17 12:36:59;;;;;;;21.65;16.02;;;;;;;;;;4875767;29;20062;-72
2021/03/17 12:39:27;;;;;;;24.10;16.05;;;;;;;;;;4886556;29;20169;-71
2021/03/17 12:41:53;;;;;;;24.23;15.25;;;;;;;;;;4885464;29;20083;-70
2021/03/17 12:44:19;;;;;;;25.05;16.02;;;;;;;;;;4868557;29;20143;-71
2021/03/17 12:46:45;;;;;;;25.85;16.17;;;;;;;;;;4870286;29;20025;-71
2021/03/17 12:51:46;;;;;;;25.88;16.88;;;;;;;;;;4733011;29;20281;-70
2021/03/17 12:54:12;;;;;;;28.20;17.73;;;;;;;;;;4891933;29;20021;-69
2021/03/17 12:56:38;;;;;;;28.17;17.85;;;;;;;;;;4892187;29;20064;-68
2021/03/17 12:59:04;;;;;;;28.73;18.45;;;;;;;;;;4900165;29;20031;-71
2021/03/17 13:01:30;;;;;;;26.00;18.23;;;;;;;;;;4901333;29;20475;-66
2021/03/17 13:03:56;;;;;;;29.98;18.52;;;;;;;;;;4900621;29;20024;-73
2021/03/17 13:06:23;;;;;;;28.92;17.65;;;;;;;;;;4916692;29;20020;-68
2021/03/17 13:08:49;;;;;;;25.50;16.02;;;;;;;;;;4889519;29;20035;-67
2021/03/17 13:11:15;;;;;;;26.20;16.90;;;;;;;;;;4884601;29;20104;-69
2021/03/17 13:13:41;;;;;;;24.25;16.00;;;;;;;;;;4880108;29;20036;-68
2021/03/17 13:16:08;;;;;;;22.85;15.00;;;;;;;;;;4880105;29;20037;-68
2021/03/17 13:18:34;;;;;;;22.25;15.13;;;;;;;;;;4880406;29;20109;-68
2021/03/17 13:21:00;;;;;;;22.88;15.40;;;;;;;;;;4880251;29;20065;-66
2021/03/17 13:23:26;;;;;;;22.10;15.45;;;;;;;;;;4879589;29;20025;-68
2021/03/17 13:25:52;;;;;;;22.58;15.05;;;;;;;;;;4880051;29;20075;-68
2021/03/17 13:28:18;;;;;;;20.42;13.63;;;;;;;;;;4880146;29;20033;-67
2021/03/17 13:30:48;;;;;;;22.50;14.40;;;;;;;;;;4879680;29;20385;-67
2021/03/17 13:33:15;;;;;;;23.83;14.82;;;;;;;;;;4863209;29;20035;-68
2021/03/17 13:35:41;;;;;;;23.90;15.07;;;;;;;;;;4863262;29;20025;-68
2021/03/17 13:38:08;;;;;;;23.30;15.23;;;;;;;;;;4879980;29;20029;-67
2021/03/17 13:40:39;;;;;;;27.42;14.90;;;;;;;;;;4879483;29;20041;-69
2021/03/17 13:43:07;;;;;;;24.40;15.43;;;;;;;;;;4879895;29;20060;-69
2021/03/17 13:45:33;;;;;;;24.90;15.52;;;;;;;;;;4892580;29;20451;-68
2021/03/17 13:48:00;;;;;;;24.38;15.32;;;;;;;;;;4893861;29;20037;-66
2021/03/17 13:50:28;;;;;;;22.65;14.52;;;;;;;;;;4880324;29;20048;-66
2021/03/17 13:52:56;;;;;;;20.60;14.40;;;;;;;;;;4888924;29;20057;-71
2021/03/17 13:55:23;;;;;;;25.02;14.60;;;;;;;;;;4881800;29;20029;-70
2021/03/17 13:57:50;;;;;;;24.27;13.90;;;;;;;;;;4891770;29;20056;-68
2021/03/17 14:00:16;;;;;;;24.30;14.90;;;;;;;;;;4884501;29;20093;-70
2021/03/17 14:02:43;;;;;;;21.85;13.45;;;;;;;;;;4879976;29;20051;-69
2021/03/17 14:05:10;;;;;;;19.92;14.05;;;;;;;;;;4862831;29;20115;-68
2021/03/17 14:07:37;;;;;;;26.73;15.30;;;;;;;;;;4879464;29;20465;-71
2021/03/17 14:10:07;;;;;;;23.77;14.38;;;;;;;;;;4879166;29;20374;-67
2021/03/17 14:12:34;;;;;;;22.20;14.30;;;;;;;;;;4862362;29;20036;-67
2021/03/17 14:15:00;;;;;;;20.05;13.23;;;;;;;;;;4861270;29;20052;-68
2021/03/17 14:17:27;;;;;;;24.23;13.60;;;;;;;;;;4878919;29;20098;-68
2021/03/17 14:19:53;;;;;;;25.00;14.35;;;;;;;;;;4862448;29;20038;-68
2021/03/17 14:22:19;;;;;;;24.75;14.48;;;;;;;;;;4862331;29;20397;-70
2021/03/17 14:24:45;;;;;;;23.10;13.80;;;;;;;;;;4862654;29;20120;-70
2021/03/17 14:27:11;;;;;;;22.83;14.30;;;;;;;;;;4862524;29;20065;-69
2021/03/17 14:29:37;;;;;;;23.48;14.98;;;;;;;;;;4862566;29;20540;-67
2021/03/17 14:32:04;;;;;;;26.48;15.90;;;;;;;;;;4879632;29;20072;-66
2021/03/17 14:34:30;;;;;;;23.48;12.85;;;;;;;;;;4891762;29;20522;-67
2021/03/17 14:36:56;;;;;;;22.30;14.32;;;;;;;;;;4896361;29;20108;-67
2021/03/17 14:39:22;;;;;;;22.02;14.13;;;;;;;;;;4881255;29;20036;-69
2021/03/17 14:41:48;;;;;;;24.10;14.88;;;;;;;;;;4880419;29;20033;-67
2021/03/17 14:44:15;;;;;;;24.55;15.13;;;;;;;;;;4897776;29;20391;-70
2021/03/17 14:46:41;;;;;;;27.42;16.58;;;;;;;;;;4898373;29;20103;-69
2021/03/17 14:49:07;;;;;;;26.77;16.17;;;;;;;;;;4896798;29;20040;-70
2021/03/17 14:51:33;;;;;;;28.40;16.60;;;;;;;;;;4884011;29;20048;-65
2021/03/17 14:53:59;;;;;;;24.23;16.35;;;;;;;;;;4889975;29;20037;-69
2021/03/17 14:56:25;;;;;;;24.02;14.45;;;;;;;;;;4880840;29;20528;-68
2021/03/17 14:58:51;;;;;;;25.50;15.93;;;;;;;;;;4881706;29;20033;-69
2021/03/17 15:01:17;;;;;;;23.40;14.68;;;;;;;;;;4867378;29;20025;-67
2021/03/17 15:03:44;;;;;;;24.35;14.52;;;;;;;;;;4864737;29;20119;-69
2021/03/17 15:06:10;;;;;;;21.52;14.05;;;;;;;;;;4889549;29;20029;-68
2021/03/17 15:08:36;;;;;;;23.27;14.40;;;;;;;;;;4866542;29;20032;-70
2021/03/17 15:11:02;;;;;;;24.60;15.88;;;;;;;;;;4889950;29;20039;-66
2021/03/17 15:13:29;;;;;;;27.55;16.80;;;;;;;;;;4891536;29;20499;-67
2021/03/17 15:15:55;;;;;;;24.80;16.38;;;;;;;;;;4874951;29;20028;-65
2021/03/17 15:18:21;;;;;;;24.42;15.82;;;;;;;;;;4888471;29;20057;-68
2021/03/17 15:20:47;;;;;;;26.92;15.95;;;;;;;;;;4875203;29;20029;-66
2021/03/17 15:23:13;;;;;;;24.90;14.88;;;;;;;;;;4889375;29;20096;-65
2021/03/17 15:25:40;;;;;;;20.65;13.52;;;;;;;;;;4891111;29;20493;-65
2021/03/17 15:28:08;;;;;;;26.52;16.15;;;;;;;;;;4890648;29;20028;-65
2021/03/17 15:30:34;;;;;;;27.98;17.90;;;;;;;;;;4889413;29;20107;-65
2021/03/17 15:33:00;;;;;;;32.80;20.42;;;;;;;;;;4890439;29;20033;-67
2021/03/17 15:35:30;;;;;;;27.10;16.13;;;;;;;;;;4889573;29;20024;-67
2021/03/17 15:37:56;;;;;;;29.20;16.95;;;;;;;;;;4892353;29;20100;-64
2021/03/17 15:40:23;;;;;;;24.77;15.35;;;;;;;;;;4889555;29;20063;-67
2021/03/17 15:42:49;;;;;;;22.63;14.63;;;;;;;;;;4891525;29;20031;-68
2021/03/17 15:45:18;;;;;;;21.52;13.52;;;;;;;;;;4872497;29;20032;-65
2021/03/17 15:47:44;;;;;;;23.63;14.02;;;;;;;;;;4889709;29;20392;-67
2021/03/17 15:50:12;;;;;;;20.75;12.63;;;;;;;;;;4890915;29;20032;-67
2021/03/17 15:52:39;;;;;;;22.98;14.18;;;;;;;;;;4871456;29;20401;-66
2021/03/17 15:55:05;;;;;;;22.45;13.20;;;;;;;;;;4890603;29;20388;-66
2021/03/17 15:57:32;;;;;;;24.05;13.50;;;;;;;;;;4872351;29;20081;-67
2021/03/17 15:59:59;;;;;;;24.20;14.93;;;;;;;;;;4889387;29;20033;-67
2021/03/17 16:02:25;;;;;;;23.45;13.90;;;;;;;;;;4872539;29;20025;-70
2021/03/17 16:04:51;;;;;;;21.90;13.65;;;;;;;;;;4888324;29;20048;-69
2021/03/17 16:07:17;;;;;;;23.50;14.85;;;;;;;;;;4889339;29;20017;-68
2021/03/17 16:09:43;;;;;;;22.95;14.75;;;;;;;;;;4894874;29;20081;-67
2021/03/17 16:12:12;;;;;;;26.77;16.25;;;;;;;;;;4891141;29;20388;-66
2021/03/17 16:14:38;;;;;;;23.20;14.77;;;;;;;;;;4888993;29;20029;-66
2021/03/17 16:17:04;;;;;;;23.70;15.15;;;;;;;;;;4900276;29;20029;-66
2021/03/17 16:19:30;;;;;;;25.48;15.95;;;;;;;;;;4899644;29;20489;-67
2021/03/17 16:21:56;;;;;;;25.38;15.40;;;;;;;;;;4889935;29;20655;-68
2021/03/17 16:24:22;;;;;;;27.08;16.08;;;;;;;;;;4898686;29;20029;-69
2021/03/17 16:26:48;;;;;;;28.08;17.40;;;;;;;;;;4899496;29;20037;-67
2021/03/17 16:29:15;;;;;;;31.77;17.88;;;;;;;;;;4890737;29;20028;-66
2021/03/17 16:31:41;;;;;;;30.25;18.88;;;;;;;;;;4918934;29;20492;-67
2021/03/17 16:34:07;;;;;;;29.63;18.27;;;;;;;;;;4908527;29;20031;-68
2021/03/17 16:36:33;;;;;;;29.17;18.42;;;;;;;;;;4885787;29;20088;-70
2021/03/17 16:39:00;;;;;;;27.23;16.65;;;;;;;;;;4881298;29;20025;-66
2021/03/17 16:41:26;;;;;;;25.92;16.40;;;;;;;;;;4879936;29;20102;-69
2021/03/17 16:43:53;;;;;;;24.75;16.33;;;;;;;;;;4881370;29;20104;-68
2021/03/17 16:46:20;;;;;;;28.02;17.15;;;;;;;;;;4864471;29;20036;-66
2021/03/17 16:48:48;;;;;;;28.42;17.10;;;;;;;;;;4889874;29;20032;-68
2021/03/17 16:51:15;;;;;;;27.92;18.30;;;;;;;;;;4888336;29;20556;-67
2021/03/17 16:53:41;;;;;;;26.98;17.65;;;;;;;;;;4866844;29;20050;-67
2021/03/17 16:56:07;;;;;;;27.35;18.35;;;;;;;;;;4878972;29;20040;-66
2021/03/17 16:58:33;;;;;;;28.90;18.35;;;;;;;;;;4883664;29;20099;-68
2021/03/17 17:01:00;;;;;;;29.30;18.33;;;;;;;;;;4872283;29;20033;-66
2021/03/17 17:03:26;;;;;;;29.02;19.25;;;;;;;;;;4884531;29;20627;-68
2021/03/17 17:06:25;;;;;;;31.13;19.58;;;;;;;;;;4897052;29;20036;-68
2021/03/17 17:08:55;;;;;;;30.15;19.55;;;;;;;;;;4889469;29;20055;-69
2021/03/17 17:11:21;;;;;;;30.05;18.58;;;;;;;;;;4913255;29;20531;-68
2021/03/17 17:13:47;;;;;;;26.25;17.30;;;;;;;;;;4890605;29;20025;-68
2021/03/17 17:16:14;;;;;;;28.55;18.42;;;;;;;;;;4898186;29;20477;-69
2021/03/17 17:18:40;;;;;;;27.17;17.40;;;;;;;;;;4880716;29;20124;-70
2021/03/17 17:21:07;;;;;;;30.20;17.98;;;;;;;;;;4898521;29;20025;-70
2021/03/17 17:23:33;;;;;;;27.27;18.48;;;;;;;;;;4895780;29;20028;-66
2021/03/17 17:25:59;;;;;;;30.02;18.58;;;;;;;;;;4876438;29;20101;-68
2021/03/17 17:28:25;;;;;;;28.85;18.70;;;;;;;;;;4892594;29;20028;-73
2021/03/17 17:30:51;;;;;;;27.27;18.40;;;;;;;;;;4892052;29;20042;-69
2021/03/17 17:33:18;;;;;;;27.33;18.25;;;;;;;;;;4893466;29;20049;-70
2021/03/17 17:35:44;;;;;;;31.08;20.25;;;;;;;;;;4890209;29;20036;-70
2021/03/17 17:38:10;;;;;;;37.22;23.02;;;;;;;;;;4897371;29;20111;-72
2021/03/17 17:40:37;;;;;;;43.03;24.75;;;;;;;;;;4897998;29;20496;-69
2021/03/17 17:43:04;;;;;;;45.72;26.40;;;;;;;;;;4898335;29;20457;-69
2021/03/17 17:45:32;;;;;;;41.65;24.20;;;;;;;;;;4897831;29;20021;-71
2021/03/17 17:48:02;;;;;;;44.40;25.33;;;;;;;;;;4898025;29;20041;-70
2021/03/17 17:50:28;;;;;;;39.15;23.25;;;;;;;;;;4897836;29;20469;-69
2021/03/17 17:52:56;;;;;;;40.22;22.92;;;;;;;;;;4896983;29;20044;-70
2021/03/17 17:55:22;;;;;;;34.72;19.27;;;;;;;;;;4881669;29;20441;-68
2021/03/17 17:57:49;;;;;;;31.98;18.83;;;;;;;;;;4897935;29;20059;-71
2021/03/17 18:00:16;;;;;;;31.90;17.75;;;;;;;;;;4897807;29;20017;-67
2021/03/17 18:02:42;;;;;;;27.65;17.23;;;;;;;;;;4880138;29;20040;-70
2021/03/17 18:05:09;;;;;;;29.02;17.63;;;;;;;;;;4880335;29;20032;-70
2021/03/17 18:07:35;;;;;;;24.85;15.50;;;;;;;;;;4896103;29;20024;-71
2021/03/17 18:10:02;;;;;;;25.52;16.42;;;;;;;;;;4894236;29;20033;-71
2021/03/17 18:12:28;;;;;;;25.63;16.05;;;;;;;;;;4896538;29;20054;-71
2021/03/17 18:14:54;;;;;;;26.60;17.50;;;;;;;;;;4896777;29;20096;-71
2021/03/17 18:17:20;;;;;;;29.20;17.42;;;;;;;;;;4898025;29;20033;-74
2021/03/17 18:19:47;;;;;;;33.45;18.67;;;;;;;;;;4879389;29;20028;-70
2021/03/17 18:22:13;;;;;;;32.55;18.98;;;;;;;;;;4894732;29;20032;-68
2021/03/17 18:24:39;;;;;;;31.58;19.42;;;;;;;;;;4873355;29;20039;-67
2021/03/17 18:27:06;;;;;;;33.75;19.70;;;;;;;;;;4870815;29;20050;-68
2021/03/17 18:29:32;;;;;;;34.72;20.52;;;;;;;;;;4886492;29;20079;-70
2021/03/17 18:31:58;;;;;;;34.20;21.15;;;;;;;;;;4869679;29;20480;-69
2021/03/17 18:34:24;;;;;;;34.28;18.95;;;;;;;;;;4870204;29;20031;-70
2021/03/17 18:36:51;;;;;;;31.63;20.13;;;;;;;;;;4888286;29;20060;-68
2021/03/17 18:39:17;;;;;;;31.85;19.58;;;;;;;;;;4895068;29;20032;-71
2021/03/17 18:41:43;;;;;;;30.17;18.60;;;;;;;;;;4871298;29;20032;-70
2021/03/17 18:44:10;;;;;;;33.38;19.98;;;;;;;;;;4869625;29;20029;-70
2021/03/17 18:46:36;;;;;;;32.47;19.80;;;;;;;;;;4887970;29;20021;-68
2021/03/17 18:49:03;;;;;;;33.25;19.85;;;;;;;;;;4887643;29;20025;-68
2021/03/17 18:51:29;;;;;;;31.80;20.60;;;;;;;;;;4894999;29;20393;-65
2021/03/17 18:53:56;;;;;;;32.38;20.00;;;;;;;;;;4888574;29;20036;-69
2021/03/17 18:56:22;;;;;;;29.95;19.17;;;;;;;;;;4872555;29;20024;-68
2021/03/17 18:58:48;;;;;;;32.85;19.45;;;;;;;;;;4890738;29;20029;-69
2021/03/17 19:01:14;;;;;;;31.17;19.20;;;;;;;;;;4876572;29;20025;-70
2021/03/17 19:03:41;;;;;;;29.73;18.83;;;;;;;;;;4896452;29;20064;-68
2021/03/17 19:06:08;;;;;;;31.40;19.15;;;;;;;;;;4897923;29;20028;-68
2021/03/17 19:08:34;;;;;;;31.60;19.83;;;;;;;;;;4897562;29;20044;-68
2021/03/17 19:11:00;;;;;;;30.42;18.92;;;;;;;;;;4898060;29;20112;-70
2021/03/17 19:13:27;;;;;;;30.52;19.30;;;;;;;;;;4897959;29;20052;-70
2021/03/17 19:15:53;;;;;;;30.05;18.60;;;;;;;;;;4897509;29;20076;-67
2021/03/17 19:18:20;;;;;;;33.45;19.80;;;;;;;;;;4898076;29;20029;-68
2021/03/17 19:20:50;;;;;;;28.17;18.40;;;;;;;;;;4898084;29;20079;-71
2021/03/17 19:23:17;;;;;;;28.38;17.33;;;;;;;;;;4881006;29;20024;-71
2021/03/17 19:25:44;;;;;;;26.90;17.55;;;;;;;;;;4880879;29;20035;-69
2021/03/17 19:28:11;;;;;;;26.50;17.02;;;;;;;;;;4898070;29;20112;-67
2021/03/17 19:30:49;;;;;;;25.73;16.98;;;;;;;;;;4897262;29;20081;-69
2021/03/17 19:33:26;;;;;;;27.83;16.35;;;;;;;;;;4897757;29;20020;-70
2021/03/17 19:35:52;;;;;;;28.52;17.80;;;;;;;;;;4897971;29;20024;-71
2021/03/17 19:38:19;;;;;;;25.23;16.00;;;;;;;;;;4901015;29;20033;-71
2021/03/17 19:40:48;;;;;;;25.40;16.42;;;;;;;;;;4901118;29;20028;-68
2021/03/17 19:43:14;;;;;;;25.70;15.80;;;;;;;;;;4900715;29;20035;-69
2021/03/17 19:45:40;;;;;;;25.55;15.48;;;;;;;;;;4900822;29;20065;-69
2021/03/17 19:48:07;;;;;;;27.00;15.52;;;;;;;;;;4901023;29;20529;-69
2021/03/17 19:50:34;;;;;;;25.38;16.23;;;;;;;;;;4900511;29;20060;-70
2021/03/17 19:53:01;;;;;;;26.55;16.20;;;;;;;;;;4901143;29;20024;-69
2021/03/17 19:55:27;;;;;;;26.65;17.00;;;;;;;;;;4901264;29;20028;-69
2021/03/17 19:57:54;;;;;;;26.20;16.52;;;;;;;;;;4883192;29;20040;-69
2021/03/17 20:00:22;;;;;;;25.17;16.23;;;;;;;;;;4901253;29;20119;-69
2021/03/17 20:02:49;;;;;;;29.85;17.05;;;;;;;;;;4900793;29;20031;-67
2021/03/17 20:05:15;;;;;;;31.55;18.23;;;;;;;;;;4900390;29;20039;-68
2021/03/17 20:07:41;;;;;;;25.63;16.73;;;;;;;;;;4881874;29;20087;-68
2021/03/17 20:10:09;;;;;;;28.13;17.35;;;;;;;;;;4900065;29;20481;-68
2021/03/17 20:12:36;;;;;;;24.83;15.95;;;;;;;;;;4900409;29;20041;-70
2021/03/17 20:15:03;;;;;;;26.73;16.35;;;;;;;;;;4900464;29;20035;-69
2021/03/17 20:17:33;;;;;;;24.23;15.60;;;;;;;;;;4900379;29;20029;-71
2021/03/17 20:19:59;;;;;;;24.38;16.00;;;;;;;;;;4899459;29;20519;-71
2021/03/17 20:22:25;;;;;;;23.83;16.10;;;;;;;;;;4899622;29;20036;-70
2021/03/17 20:24:52;;;;;;;34.53;22.15;;;;;;;;;;4899806;29;20029;-71
2021/03/17 20:27:18;;;;;;;29.52;18.98;;;;;;;;;;4900262;29;20543;-70
2021/03/17 20:29:45;;;;;;;27.52;17.55;;;;;;;;;;4879038;29;20065;-69
2021/03/17 20:32:11;;;;;;;26.55;17.42;;;;;;;;;;4899771;29;20502;-69
2021/03/17 20:34:37;;;;;;;27.52;16.35;;;;;;;;;;4907567;29;20024;-69
2021/03/17 20:37:04;;;;;;;27.50;17.17;;;;;;;;;;4878676;29;20051;-68
2021/03/17 20:39:31;;;;;;;27.70;17.55;;;;;;;;;;4892764;29;20028;-69
2021/03/17 20:41:57;;;;;;;26.52;17.80;;;;;;;;;;4913143;29;20024;-68
2021/03/17 20:44:23;;;;;;;26.80;17.65;;;;;;;;;;4899135;29;20024;-70
2021/03/17 20:46:49;;;;;;;27.92;18.42;;;;;;;;;;4917146;29;20102;-70
2021/03/17 20:49:15;;;;;;;31.98;18.55;;;;;;;;;;4916729;29;20480;-69
2021/03/17 20:51:42;;;;;;;28.95;18.48;;;;;;;;;;4918847;29;20126;-70
2021/03/17 20:54:08;;;;;;;26.88;17.52;;;;;;;;;;4916208;29;20555;-70
2021/03/17 20:56:34;;;;;;;31.75;19.20;;;;;;;;;;4900663;29;20028;-70
2021/03/17 20:59:01;;;;;;;26.52;17.55;;;;;;;;;;4916003;29;20027;-69
2021/03/17 21:01:27;;;;;;;30.15;19.40;;;;;;;;;;4898726;29;20452;-71
2021/03/17 21:03:53;;;;;;;29.23;18.75;;;;;;;;;;4916786;29;20428;-69
2021/03/17 21:06:19;;;;;;;29.65;19.08;;;;;;;;;;4917666;29;20039;-68
2021/03/17 21:08:45;;;;;;;30.60;17.92;;;;;;;;;;4918124;29;20055;-67
2021/03/17 21:11:11;;;;;;;30.27;18.73;;;;;;;;;;4901440;29;20040;-69
2021/03/17 21:13:37;;;;;;;30.00;19.10;;;;;;;;;;4918547;29;20349;-66
2021/03/17 21:16:04;;;;;;;31.40;18.83;;;;;;;;;;4918228;29;20031;-66
2021/03/17 21:18:30;;;;;;;31.67;19.30;;;;;;;;;;4919096;29;20031;-67
2021/03/17 21:20:56;;;;;;;29.95;18.52;;;;;;;;;;4918533;29;20055;-67
2021/03/17 21:23:23;;;;;;;29.42;18.98;;;;;;;;;;4918574;29;20040;-65
2021/03/17 21:25:49;;;;;;;33.00;20.58;;;;;;;;;;4901519;29;20082;-66
2021/03/17 21:28:16;;;;;;;29.90;19.52;;;;;;;;;;4918116;29;20029;-67
2021/03/17 21:30:43;;;;;;;31.80;19.25;;;;;;;;;;4918028;29;20040;-69